Map

Track Data

SID SEASON NUMBER BASIN SUBBASIN NAME ISO_TIME NATURE LAT LON WMO_WIND WMO_PRES WMO_AGENCY TRACK_TYPE DIST2LAND LANDFALL IFLAG USA_AGENCY USA_ATCF_ID USA_LAT USA_LON USA_RECORD USA_STATUS USA_WIND USA_PRES USA_SSHS USA_R34_NE USA_R34_SE USA_R34_SW USA_R34_NW USA_R50_NE USA_R50_SE USA_R50_SW USA_R50_NW USA_R64_NE USA_R64_SE USA_R64_SW USA_R64_NW USA_POCI USA_ROCI USA_RMW USA_EYE TOKYO_LAT TOKYO_LON TOKYO_GRADE TOKYO_WIND TOKYO_PRES TOKYO_R50_DIR TOKYO_R50_LONG TOKYO_R50_SHORT TOKYO_R30_DIR TOKYO_R30_LONG TOKYO_R30_SHORT TOKYO_LAND CMA_LAT CMA_LON CMA_CAT CMA_WIND CMA_PRES HKO_LAT HKO_LON HKO_CAT HKO_WIND HKO_PRES NEWDELHI_LAT NEWDELHI_LON NEWDELHI_GRADE NEWDELHI_WIND NEWDELHI_PRES NEWDELHI_CI NEWDELHI_DP NEWDELHI_POCI REUNION_LAT REUNION_LON REUNION_TYPE REUNION_WIND REUNION_PRES REUNION_TNUM REUNION_CI REUNION_RMW REUNION_R34_NE REUNION_R34_SE REUNION_R34_SW REUNION_R34_NW REUNION_R50_NE REUNION_R50_SE REUNION_R50_SW REUNION_R50_NW REUNION_R64_NE REUNION_R64_SE REUNION_R64_SW REUNION_R64_NW BOM_LAT BOM_LON BOM_TYPE BOM_WIND BOM_PRES BOM_TNUM BOM_CI BOM_RMW BOM_R34_NE BOM_R34_SE BOM_R34_SW BOM_R34_NW BOM_R50_NE BOM_R50_SE BOM_R50_SW BOM_R50_NW BOM_R64_NE BOM_R64_SE BOM_R64_SW BOM_R64_NW BOM_ROCI BOM_POCI BOM_EYE BOM_POS_METHOD BOM_PRES_METHOD NADI_LAT NADI_LON NADI_CAT NADI_WIND NADI_PRES WELLINGTON_LAT WELLINGTON_LON WELLINGTON_WIND WELLINGTON_PRES DS824_LAT DS824_LON DS824_STAGE DS824_WIND DS824_PRES TD9636_LAT TD9636_LON TD9636_STAGE TD9636_WIND TD9636_PRES TD9635_LAT TD9635_LON TD9635_WIND TD9635_PRES TD9635_ROCI NEUMANN_LAT NEUMANN_LON NEUMANN_CLASS NEUMANN_WIND NEUMANN_PRES MLC_LAT MLC_LON MLC_CLASS MLC_WIND MLC_PRES USA_GUST BOM_GUST BOM_GUST_PER REUNION_GUST REUNION_GUST_PER USA_SEAHGT USA_SEARAD_NE USA_SEARAD_SE USA_SEARAD_SW USA_SEARAD_NW STORM_SPEED STORM_DIR
1885167N21090 1885 24 NI BB NOT_NAMED 1885-06-16 00:00:00 TS 21.5000 89.7000 main 33 33 _________O____ -1 21.5000 89.7000 TC 45 0 0
1885167N21090 1885 24 NI BB NOT_NAMED 1885-06-16 03:00:00 TS 21.5000 89.7000 main 33 33 _________PO___ -1 21.5000 89.7000 TC 45 21.5000 89.7000 3 0 0
1885167N21090 1885 24 NI BB NOT_NAMED 1885-06-16 06:00:00 TS 21.5056 89.6988 main 33 33 _________OP___ -1 21.5000 89.7000 TC 45 21.5141 89.6969 3 0 0
1885167N21090 1885 24 NI BB NOT_NAMED 1885-06-16 09:00:00 TS 21.5096 89.6979 main 33 33 _________PP___ -1 21.5000 89.7000 TC 45 21.5225 89.6950 3 0 0
1885167N21090 1885 24 NI BB NOT_NAMED 1885-06-16 12:00:00 TS 21.5098 89.6978 main 33 33 _________OP___ -1 21.5000 89.7000 TC 45 21.5197 89.6956 3 0 0
1885167N21090 1885 24 NI BB NOT_NAMED 1885-06-16 15:00:00 TS 21.5000 89.7000 main 33 33 _________PO___ -1 21.5000 89.7000 TC 45 21.5000 89.7000 3 0 135
1885167N21090 1885 24 NI BB NOT_NAMED 1885-06-16 18:00:00 TS 21.4817 89.7040 main 33 33 _________OP___ -1 21.5000 89.7000 TC 45 21.4634 89.7081 3 0 0
1885167N21090 1885 24 NI BB NOT_NAMED 1885-06-16 21:00:00 TS 21.4550 89.7112 main 33 33 _________PP___ -1 21.4775 89.7075 TC 45 21.4325 89.7149 3 0 0
1885167N21090 1885 24 NI BB NOT_NAMED 1885-06-17 00:00:00 TS 21.4677 89.7071 main 33 33 _________OP___ -1 21.5000 89.7000 TC 45 21.4353 89.7143 3 1 339
1885167N21090 1885 24 NI BB NOT_NAMED 1885-06-17 03:00:00 TS 21.5525 89.6787 main 22 11 _________PO___ -1 21.6050 89.6575 TC 41 21.5000 89.7000 3 3 348
1885167N21090 1885 24 NI BB NOT_NAMED 1885-06-17 06:00:00 TS 21.7383 89.6403 main 15 0 _________OP___ -1 21.8000 89.6000 TC 37 21.6765 89.6806 3 5 351
1885167N21090 1885 24 NI BB NOT_NAMED 1885-06-17 09:00:00 TS 22.0062 89.6012 main 0 0 _________PP___ -1 22.1000 89.5575 TC 33 21.9124 89.6450 3 6 351
1885167N21090 1885 24 NI BB NOT_NAMED 1885-06-17 12:00:00 TS 22.2836 89.5434 main 0 0 _________OP___ -1 22.4000 89.5000 TC 30 22.1671 89.5869 3 5 345
1885167N21090 1885 24 NI BB NOT_NAMED 1885-06-17 15:00:00 TS 22.4900 89.4612 main 0 0 _________PO___ -1 22.5800 89.4225 TC 30 22.4000 89.5000 1 4 332
1885167N21090 1885 24 NI BB NOT_NAMED 1885-06-17 18:00:00 TS 22.6350 89.3374 main 0 0 _________OP___ -1 22.7000 89.3000 TC 30 22.5701 89.3748 1 4 315
1885167N21090 1885 24 NI BB NOT_NAMED 1885-06-17 21:00:00 TS 22.7626 89.1614 main 0 0 _________PP___ -1 22.8151 89.1000 TC 30 22.7101 89.2227 1 4 304
1885167N21090 1885 24 NI BB NOT_NAMED 1885-06-18 00:00:00 TS 22.8600 88.9796 main 0 0 _________OP___ -1 22.9000 88.9000 TC 30 22.8201 89.0592 1 3 300
1885167N21090 1885 24 NI BB NOT_NAMED 1885-06-18 03:00:00 TS 22.9325 88.8462 main 0 0 _________PO___ -1 22.9649 88.7925 TC 30 22.9000 88.9000 1 3 298
1885167N21090 1885 24 NI BB NOT_NAMED 1885-06-18 06:00:00 TS 22.9789 88.7338 main 0 0 _________OP___ -1 23.0000 88.7000 TC 30 22.9578 88.7677 1 2 286
1885167N21090 1885 24 NI BB NOT_NAMED 1885-06-18 09:00:00 TS 22.9975 88.5999 main 0 0 _________PP___ -1 23.0075 88.5575 TC 30 22.9874 88.6423 1 3 275
1885167N21090 1885 24 NI BB NOT_NAMED 1885-06-18 12:00:00 TS 22.9992 88.4604 main 0 0 _________OP___ -1 23.0000 88.4000 TC 30 22.9984 88.5208 1 3 271
1885167N21090 1885 24 NI BB NOT_NAMED 1885-06-18 15:00:00 TS 23.0000 88.3213 main 0 0 _________PO___ -1 23.0000 88.2425 TC 30 23.0000 88.4000 1 2 270
1885167N21090 1885 24 NI BB NOT_NAMED 1885-06-18 18:00:00 TS 23.0000 88.2013 main 0 0 _________OP___ -1 23.0000 88.1000 TC 30 23.0001 88.2772 1 2 270
1885167N21090 1885 24 NI BB NOT_NAMED 1885-06-18 21:00:00 TS 23.0001 88.0875 main 0 0 _________PP___ -1 23.0000 87.9900 TC 30 23.0001 88.1526 1 2 270
1885167N21090 1885 24 NI BB NOT_NAMED 1885-06-19 00:00:00 TS 23.0001 87.9844 main 0 0 _________OP___ -1 23.0000 87.9000 TC 30 23.0001 88.0266 1 2 270
1885167N21090 1885 24 NI BB NOT_NAMED 1885-06-19 03:00:00 NR 23.0000 87.9000 main 0 __________O___ -1 TC 23.0000 87.9000 1 2 270

About IBTrACS Database

This database is a web-friendly format of International Best Track Archive for Climate Stewardship (IBTrACS), a global best track data archive curated by NOAA dating back to 1842.

Updated: 2021-12-03